createdAt,value
2022-10-23T00:01:15.348Z,2.87
2022-10-23T00:03:43.880Z,3.03
2022-10-23T00:06:14.550Z,3.20
2022-10-23T00:08:42.965Z,3.00
2022-10-23T00:11:13.700Z,2.80
2022-10-23T00:13:42.528Z,2.93
2022-10-23T00:16:11.224Z,3.00
2022-10-23T00:18:40.359Z,2.70
2022-10-23T00:21:10.489Z,3.40
2022-10-23T00:23:40.469Z,2.67
2022-10-23T00:26:11.231Z,3.27
2022-10-23T00:28:39.648Z,2.60
2022-10-23T00:31:08.343Z,3.27
2022-10-23T00:33:37.350Z,2.70
2022-10-23T00:36:07.386Z,2.53
2022-10-23T00:38:36.098Z,2.70
2022-10-23T00:41:08.197Z,3.20
2022-10-23T00:43:55.302Z,3.87
2022-10-23T00:46:23.635Z,3.27
2022-10-23T00:48:52.650Z,3.00
2022-10-23T00:51:21.374Z,2.90
2022-10-23T00:54:01.098Z,2.60
2022-10-23T00:56:39.375Z,3.37
2022-10-23T00:59:08.024Z,2.50
2022-10-23T01:01:36.603Z,2.60
2022-10-23T01:04:06.614Z,3.13
2022-10-23T01:06:38.583Z,3.13
2022-10-23T01:09:13.949Z,3.53
2022-10-23T01:11:48.538Z,2.67
2022-10-23T01:14:24.425Z,3.17
2022-10-23T01:17:01.076Z,3.40
2022-10-23T01:19:45.803Z,3.17
2022-10-23T01:22:34.384Z,2.80
2022-10-23T01:25:10.951Z,2.90
2022-10-23T01:27:43.228Z,2.63
2022-10-23T01:30:14.464Z,2.67
2022-10-23T01:32:49.953Z,2.93
2022-10-23T01:35:23.097Z,3.10
2022-10-23T01:38:06.279Z,3.00
2022-10-23T01:40:38.457Z,2.30
2022-10-23T01:43:13.459Z,2.80
2022-10-23T01:45:44.460Z,2.50
2022-10-23T01:48:22.614Z,3.23
2022-10-23T01:50:52.027Z,3.27
2022-10-23T01:53:21.681Z,2.50
2022-10-23T01:55:51.444Z,2.93
2022-10-23T01:58:27.666Z,2.60
2022-10-23T02:01:01.826Z,2.33
2022-10-23T02:03:34.154Z,2.40
2022-10-23T02:06:02.767Z,2.90
2022-10-23T02:08:31.913Z,2.93
2022-10-23T02:11:08.016Z,2.20
2022-10-23T02:13:43.737Z,2.30
2022-10-23T02:16:22.814Z,2.63
2022-10-23T02:18:58.450Z,2.60
2022-10-23T02:21:32.427Z,2.30
2022-10-23T02:24:06.261Z,2.43
2022-10-23T02:26:41.770Z,1.83
2022-10-23T02:29:16.495Z,2.57
2022-10-23T02:31:47.215Z,2.30
2022-10-23T02:34:15.463Z,2.50
2022-10-23T02:36:44.465Z,2.33
2022-10-23T02:39:13.656Z,2.33
2022-10-23T02:41:47.258Z,2.70
2022-10-23T02:44:33.867Z,2.40
2022-10-23T02:47:12.683Z,2.70
2022-10-23T02:49:47.910Z,2.60
2022-10-23T02:52:22.919Z,2.17
2022-10-23T02:55:09.413Z,2.20
2022-10-23T02:57:54.135Z,2.43
2022-10-23T03:00:25.141Z,2.60
2022-10-23T03:02:58.786Z,2.30
2022-10-23T03:05:33.134Z,2.53
2022-10-23T03:08:03.911Z,2.33
2022-10-23T03:10:32.122Z,2.10
2022-10-23T03:13:00.278Z,2.63
2022-10-23T03:15:34.646Z,1.97
2022-10-23T03:18:02.886Z,2.30
2022-10-23T03:20:31.052Z,1.90
2022-10-23T03:22:59.528Z,2.20
2022-10-23T03:25:28.806Z,1.80
2022-10-23T03:28:00.208Z,2.23
2022-10-23T03:30:28.509Z,2.33
2022-10-23T03:32:58.161Z,2.10
2022-10-23T03:35:26.543Z,2.80
2022-10-23T03:37:54.650Z,2.10
2022-10-23T03:40:25.760Z,2.33
2022-10-23T03:42:53.958Z,2.30
2022-10-23T03:45:22.073Z,2.30
2022-10-23T03:47:51.727Z,2.63
2022-10-23T03:50:21.727Z,2.17
2022-10-23T03:52:50.198Z,2.27
2022-10-23T03:55:18.659Z,2.13
2022-10-23T03:57:46.843Z,2.40
2022-10-23T04:00:15.918Z,2.23
2022-10-23T04:02:48.649Z,1.73
2022-10-23T04:05:18.269Z,1.97
2022-10-23T04:07:56.553Z,2.17
2022-10-23T04:10:25.148Z,2.40
2022-10-23T04:12:53.276Z,1.90
2022-10-23T04:15:21.529Z,1.80
2022-10-23T04:17:49.844Z,1.93
2022-10-23T04:20:18.511Z,2.23
2022-10-23T04:22:46.850Z,2.33
2022-10-23T04:25:17.065Z,2.10
2022-10-23T04:27:46.504Z,1.70
2022-10-23T04:30:15.651Z,2.10
2022-10-23T04:32:45.292Z,2.30
2022-10-23T04:35:13.976Z,1.77
2022-10-23T04:37:42.777Z,2.33
2022-10-23T04:40:14.475Z,1.83
2022-10-23T04:42:44.476Z,1.80
2022-10-23T04:45:14.587Z,1.77
2022-10-23T04:47:44.247Z,2.27
2022-10-23T04:50:15.107Z,1.90
2022-10-23T04:53:02.832Z,1.77
2022-10-23T04:55:51.401Z,1.93
2022-10-23T04:58:39.633Z,2.57
2022-10-23T05:01:11.141Z,5.43
2022-10-23T05:03:40.286Z,24.47
2022-10-23T05:06:09.725Z,29.87
2022-10-23T05:08:58.501Z,63.37
2022-10-23T05:11:46.693Z,53.93
2022-10-23T05:14:20.602Z,32.13
2022-10-23T05:16:57.784Z,16.00
2022-10-23T05:19:31.916Z,9.90
2022-10-23T05:22:03.698Z,5.70
2022-10-23T05:24:55.536Z,3.93
2022-10-23T05:27:27.419Z,2.93
2022-10-23T05:29:59.023Z,2.87
2022-10-23T05:32:38.625Z,2.10
2022-10-23T05:35:10.672Z,2.20
2022-10-23T05:37:42.797Z,2.40
2022-10-23T05:40:17.741Z,2.07
2022-10-23T05:42:47.701Z,2.53
2022-10-23T05:45:21.335Z,2.40
2022-10-23T05:48:11.272Z,2.43
2022-10-23T05:51:19.545Z,1.60
2022-10-23T05:53:56.933Z,2.07
2022-10-23T05:56:40.977Z,2.27
2022-10-23T05:59:13.318Z,1.90
2022-10-23T06:01:55.368Z,3.13
2022-10-23T06:04:44.120Z,3.60
2022-10-23T06:07:32.313Z,4.13
2022-10-23T06:10:07.808Z,2.90
2022-10-23T06:12:41.049Z,3.07
2022-10-23T06:15:13.427Z,2.63
2022-10-23T06:18:02.023Z,2.40
2022-10-23T06:20:32.301Z,2.80
2022-10-23T06:23:11.985Z,2.50
2022-10-23T06:25:59.281Z,10.93
2022-10-23T06:28:36.191Z,19.37
2022-10-23T06:31:06.235Z,14.97
2022-10-23T06:33:36.570Z,8.73
2022-10-23T06:36:08.305Z,5.87
2022-10-23T06:38:40.122Z,4.90
2022-10-23T06:41:12.452Z,3.73
2022-10-23T06:43:40.746Z,2.40
2022-10-23T06:46:14.957Z,2.50
2022-10-23T06:49:07.451Z,2.30
2022-10-23T06:51:45.235Z,1.93
2022-10-23T06:54:15.448Z,2.60
2022-10-23T06:56:53.309Z,1.73
2022-10-23T06:59:33.072Z,1.80
2022-10-23T07:02:01.838Z,2.00
2022-10-23T07:04:31.467Z,1.70
2022-10-23T07:07:01.459Z,2.20
2022-10-23T07:09:38.358Z,1.90
2022-10-23T07:12:22.594Z,1.70
2022-10-23T07:14:57.453Z,2.07
2022-10-23T07:17:25.918Z,1.80
2022-10-23T07:19:55.615Z,1.70
2022-10-23T07:22:24.867Z,1.97
2022-10-23T07:25:08.506Z,37.80
2022-10-23T07:27:39.828Z,42.87
2022-10-23T07:30:11.850Z,29.77
2022-10-23T07:32:46.622Z,19.57
2022-10-23T07:35:41.873Z,11.70
2022-10-23T07:38:16.012Z,8.23
2022-10-23T07:40:48.022Z,4.60
2022-10-23T07:43:20.853Z,4.13
2022-10-23T07:45:50.515Z,3.43
2022-10-23T07:48:30.093Z,2.57
2022-10-23T07:51:08.092Z,2.50
2022-10-23T07:53:40.564Z,2.77
2022-10-23T07:56:25.192Z,1.80
2022-10-23T07:59:35.780Z,2.00
2022-10-23T08:02:12.792Z,1.80
2022-10-23T08:04:41.581Z,1.70
2022-10-23T08:07:28.211Z,3.27
2022-10-23T08:09:58.580Z,27.57
2022-10-23T08:12:27.480Z,31.10
2022-10-23T08:14:56.801Z,20.03
2022-10-23T08:17:34.716Z,13.90
2022-10-23T08:20:15.579Z,8.70
2022-10-23T08:22:47.923Z,7.27
2022-10-23T08:25:24.954Z,5.60
2022-10-23T08:27:54.894Z,4.30
2022-10-23T08:30:23.504Z,3.50
2022-10-23T08:32:51.963Z,3.30
2022-10-23T08:35:20.637Z,3.50
2022-10-23T08:37:50.354Z,2.80
2022-10-23T08:40:22.626Z,2.27
2022-10-23T08:43:20.936Z,1.60
2022-10-23T08:46:10.403Z,1.97
2022-10-23T08:49:05.735Z,1.80
2022-10-23T08:51:50.136Z,1.90
2022-10-23T08:54:23.434Z,1.70
2022-10-23T08:56:56.534Z,1.90
2022-10-23T08:59:32.943Z,1.90
2022-10-23T09:02:05.227Z,9.60
2022-10-23T09:04:33.927Z,19.37
2022-10-23T09:07:11.079Z,14.67
2022-10-23T09:09:57.598Z,8.93
2022-10-23T09:12:30.090Z,6.17
2022-10-23T09:15:16.011Z,4.07
2022-10-23T09:17:45.250Z,2.50
2022-10-23T09:20:21.139Z,2.77
2022-10-23T09:22:50.942Z,2.20
2022-10-23T09:25:22.814Z,2.33
2022-10-23T09:27:56.093Z,1.97
2022-10-23T09:30:32.025Z,1.90
2022-10-23T09:33:01.601Z,1.90
2022-10-23T09:35:31.289Z,1.70
2022-10-23T09:37:59.528Z,1.47
2022-10-23T09:40:33.931Z,1.80
2022-10-23T09:43:04.843Z,1.20
2022-10-23T09:45:35.634Z,1.20
2022-10-23T09:48:19.098Z,1.47
2022-10-23T09:50:52.743Z,1.57
2022-10-23T09:53:31.380Z,1.60
2022-10-23T09:56:03.304Z,1.40
2022-10-23T09:58:35.982Z,1.40
2022-10-23T10:01:05.258Z,1.17
2022-10-23T10:03:54.033Z,1.33
2022-10-23T10:06:28.547Z,1.57
2022-10-23T10:08:58.842Z,1.50
2022-10-23T10:11:42.642Z,1.60
2022-10-23T10:14:45.004Z,9.97
2022-10-23T10:17:22.277Z,15.43
2022-10-23T10:20:29.796Z,10.83
2022-10-23T10:23:03.929Z,9.13
2022-10-23T10:25:37.282Z,7.60
2022-10-23T10:28:28.129Z,7.83
2022-10-23T10:31:07.544Z,5.67
2022-10-23T10:33:44.015Z,4.53
2022-10-23T10:39:02.195Z,3.47
2022-10-23T10:41:48.494Z,3.47
2022-10-23T10:44:39.217Z,3.17
2022-10-23T10:47:17.249Z,2.60
2022-10-23T10:50:00.900Z,2.80
2022-10-23T10:52:46.668Z,2.67
2022-10-23T10:55:22.650Z,3.00
2022-10-23T10:57:59.234Z,2.80
2022-10-23T11:00:47.867Z,2.33
2022-10-23T11:03:28.627Z,2.40
2022-10-23T11:08:44.613Z,2.37
2022-10-23T11:11:29.311Z,2.57
2022-10-23T11:13:57.714Z,2.30
2022-10-23T11:16:30.748Z,1.60
2022-10-23T11:19:09.951Z,1.70
2022-10-23T11:21:45.866Z,2.30
2022-10-23T11:24:35.526Z,1.60
2022-10-23T11:27:22.719Z,1.73
2022-10-23T11:30:14.259Z,1.60
2022-10-23T11:33:07.771Z,1.80
2022-10-23T11:35:49.807Z,2.07
2022-10-23T11:38:21.375Z,1.60
2022-10-23T11:40:54.274Z,2.43
2022-10-23T11:43:30.893Z,2.10
2022-10-23T11:45:59.115Z,15.30
2022-10-23T11:48:39.684Z,15.03
2022-10-23T11:51:23.168Z,9.20
2022-10-23T11:53:51.256Z,7.17
2022-10-23T11:56:31.125Z,4.90
2022-10-23T11:59:00.232Z,4.10
2022-10-23T12:01:40.502Z,3.13
2022-10-23T12:04:22.057Z,3.33
2022-10-23T12:06:53.612Z,2.43
2022-10-23T12:09:28.911Z,2.10
2022-10-23T12:12:16.481Z,1.90
2022-10-23T12:14:46.929Z,1.80
2022-10-23T12:17:36.847Z,1.87
2022-10-23T12:20:24.704Z,1.57
2022-10-23T12:23:12.777Z,1.50
2022-10-23T12:25:55.809Z,1.50
2022-10-23T12:28:35.256Z,1.50
2022-10-23T12:31:18.878Z,1.50
2022-10-23T12:33:54.586Z,1.50
2022-10-23T12:36:44.550Z,1.10
2022-10-23T12:39:29.555Z,1.60
2022-10-23T12:41:58.409Z,1.63
2022-10-23T12:44:27.218Z,1.87
2022-10-23T12:46:59.451Z,1.30
2022-10-23T12:49:31.505Z,1.40
2022-10-23T12:52:04.296Z,1.70
2022-10-23T12:54:34.406Z,1.73
2022-10-23T12:57:03.209Z,1.50
2022-10-23T12:59:38.949Z,1.80
2022-10-23T13:02:22.674Z,1.57
2022-10-23T13:04:52.084Z,1.57
2022-10-23T13:07:26.362Z,1.60
2022-10-23T13:09:59.580Z,1.50
2022-10-23T13:12:32.663Z,1.60
2022-10-23T13:15:03.531Z,1.30
2022-10-23T13:17:37.101Z,1.70
2022-10-23T13:20:27.404Z,1.40
2022-10-23T13:23:03.005Z,1.60
2022-10-23T13:25:33.654Z,1.50
2022-10-23T13:28:21.815Z,1.43
2022-10-23T13:31:23.568Z,1.70
2022-10-23T13:34:04.232Z,1.30
2022-10-23T13:36:35.509Z,1.40
2022-10-23T13:39:15.089Z,1.67
2022-10-23T13:41:45.427Z,1.53
2022-10-23T13:44:15.361Z,1.97
2022-10-23T13:46:44.244Z,17.97
2022-10-23T13:49:12.946Z,27.47
2022-10-23T13:51:44.531Z,23.20
2022-10-23T13:54:17.859Z,16.73
2022-10-23T13:56:46.627Z,12.93
2022-10-23T13:59:15.865Z,9.63
2022-10-23T14:01:45.649Z,8.73
2022-10-23T14:04:15.022Z,5.50
2022-10-23T14:06:43.861Z,5.50
2022-10-23T14:09:17.177Z,4.80
2022-10-23T14:11:46.805Z,3.87
2022-10-23T14:14:15.105Z,3.70
2022-10-23T14:16:43.278Z,3.33
2022-10-23T14:19:12.638Z,2.70
2022-10-23T14:21:40.769Z,2.97
2022-10-23T14:24:09.961Z,2.50
2022-10-23T14:26:38.557Z,2.40
2022-10-23T14:29:10.326Z,1.80
2022-10-23T14:31:44.455Z,1.67
2022-10-23T14:34:13.485Z,1.90
2022-10-23T14:36:49.804Z,2.07
2022-10-23T14:39:19.533Z,1.30
2022-10-23T14:41:47.781Z,1.63
2022-10-23T14:44:17.401Z,1.60
2022-10-23T14:46:45.906Z,1.77
2022-10-23T14:49:14.250Z,2.10
2022-10-23T14:51:42.593Z,2.10
2022-10-23T14:54:11.043Z,1.47
2022-10-23T14:56:40.781Z,2.37
2022-10-23T14:59:10.805Z,1.67
2022-10-23T15:01:45.312Z,2.00
2022-10-23T15:04:15.294Z,1.73
2022-10-23T15:06:45.171Z,1.80
2022-10-23T15:09:14.041Z,2.10
2022-10-23T15:11:42.505Z,1.80
2022-10-23T15:14:10.908Z,2.23
2022-10-23T15:16:42.276Z,1.87
2022-10-23T15:19:15.127Z,2.20
2022-10-23T15:21:46.680Z,2.07
2022-10-23T15:24:15.102Z,1.87
2022-10-23T15:26:44.415Z,2.27
2022-10-23T15:29:14.472Z,1.93
2022-10-23T15:31:46.405Z,1.90
2022-10-23T15:34:17.577Z,2.03
2022-10-23T15:36:46.964Z,1.60
2022-10-23T15:39:18.299Z,2.00
2022-10-23T15:41:47.229Z,1.90
2022-10-23T15:44:17.976Z,1.70
2022-10-23T15:46:48.339Z,2.40
2022-10-23T15:49:16.905Z,1.93
2022-10-23T15:51:45.487Z,2.23
2022-10-23T15:54:18.882Z,2.33
2022-10-23T15:56:48.159Z,2.20
2022-10-23T15:59:17.188Z,2.00
2022-10-23T16:01:45.549Z,2.40
2022-10-23T16:04:16.146Z,2.57
2022-10-23T16:06:45.176Z,2.40
2022-10-23T16:09:13.829Z,2.27
2022-10-23T16:11:43.752Z,2.10
2022-10-23T16:14:14.375Z,2.30
2022-10-23T16:16:42.932Z,2.30
2022-10-23T16:19:12.278Z,2.27
2022-10-23T16:21:42.613Z,2.37
2022-10-23T16:24:11.004Z,2.13
2022-10-23T16:26:39.986Z,2.20
2022-10-23T16:29:09.866Z,2.40
2022-10-23T16:31:38.168Z,2.73
2022-10-23T16:34:06.934Z,2.07
2022-10-23T16:36:38.959Z,9.97
2022-10-23T16:39:12.570Z,28.07
2022-10-23T16:41:59.675Z,19.40
2022-10-23T16:44:37.777Z,9.13
2022-10-23T16:47:07.612Z,5.90
2022-10-23T16:49:36.047Z,3.40
2022-10-23T16:52:04.350Z,2.90
2022-10-23T16:54:34.049Z,3.27
2022-10-23T16:57:02.375Z,3.13
2022-10-23T16:59:30.553Z,2.80
2022-10-23T17:01:58.977Z,2.60
2022-10-23T17:04:27.406Z,2.57
2022-10-23T17:06:55.551Z,2.53
2022-10-23T17:09:23.760Z,2.80
2022-10-23T17:11:54.148Z,2.30
2022-10-23T17:14:25.007Z,3.23
2022-10-23T17:16:54.006Z,2.83
2022-10-23T17:19:45.134Z,3.27
2022-10-23T17:22:13.538Z,2.80
2022-10-23T17:24:44.168Z,2.30
2022-10-23T17:27:16.015Z,2.33
2022-10-23T17:29:44.221Z,4.03
2022-10-23T17:32:12.483Z,3.33
2022-10-23T17:34:40.653Z,3.67
2022-10-23T17:37:10.140Z,2.90
2022-10-23T17:39:38.358Z,3.30
2022-10-23T17:42:06.608Z,2.93
2022-10-23T17:44:36.679Z,2.80
2022-10-23T17:47:05.124Z,2.50
2022-10-23T17:49:33.418Z,2.50
2022-10-23T17:52:01.868Z,2.83
2022-10-23T17:54:30.060Z,2.70
2022-10-23T17:56:58.557Z,3.07
2022-10-23T17:59:26.879Z,2.57
2022-10-23T18:01:58.654Z,3.20
2022-10-23T18:04:26.993Z,3.00
2022-10-23T18:06:55.429Z,2.70
2022-10-23T18:09:25.601Z,2.97
2022-10-23T18:11:53.875Z,3.30
2022-10-23T18:14:26.076Z,4.30
2022-10-23T18:16:58.296Z,3.63
2022-10-23T18:19:27.294Z,14.53
2022-10-23T18:21:55.481Z,26.50
2022-10-23T18:24:24.114Z,19.10
2022-10-23T18:26:52.416Z,13.27
2022-10-23T18:29:21.248Z,10.10
2022-10-23T18:31:49.849Z,6.33
2022-10-23T18:34:21.484Z,5.33
2022-10-23T18:36:51.628Z,4.10
2022-10-23T18:39:22.615Z,2.83
2022-10-23T18:41:53.372Z,2.83
2022-10-23T18:44:22.625Z,2.63
2022-10-23T18:46:51.803Z,2.70
2022-10-23T18:49:21.389Z,2.20
2022-10-23T18:51:50.783Z,2.53
2022-10-23T18:54:20.567Z,2.30
2022-10-23T18:56:49.058Z,2.03
2022-10-23T18:59:19.170Z,2.07
2022-10-23T19:01:47.483Z,2.57
2022-10-23T19:04:17.884Z,2.40
2022-10-23T19:06:49.030Z,2.90
2022-10-23T19:09:17.446Z,2.10
2022-10-23T19:11:45.953Z,2.13
2022-10-23T19:14:14.466Z,1.93
2022-10-23T19:16:50.227Z,1.63
2022-10-23T19:19:22.503Z,2.80
2022-10-23T19:21:52.711Z,2.37
2022-10-23T19:24:28.988Z,2.33
2022-10-23T19:26:58.454Z,2.00
2022-10-23T19:29:27.740Z,2.13
2022-10-23T19:31:56.731Z,1.60
2022-10-23T19:34:25.508Z,1.50
2022-10-23T19:36:55.893Z,1.80
2022-10-23T19:39:25.942Z,1.53
2022-10-23T19:41:55.096Z,1.93
2022-10-23T19:44:23.837Z,1.20
2022-10-23T19:46:52.725Z,1.30
2022-10-23T19:49:23.812Z,2.40
2022-10-23T19:51:52.663Z,1.70
2022-10-23T19:54:23.282Z,1.50
2022-10-23T19:56:51.625Z,1.47
2022-10-23T19:59:21.885Z,1.90
2022-10-23T20:01:50.594Z,1.50
2022-10-23T20:04:19.254Z,1.77
2022-10-23T20:06:48.991Z,2.03
2022-10-23T20:09:18.443Z,1.80
2022-10-23T20:11:50.623Z,1.70
2022-10-23T20:14:20.682Z,2.00
2022-10-23T20:16:52.237Z,2.07
2022-10-23T20:19:23.703Z,2.50
2022-10-23T20:21:52.260Z,1.83
2022-10-23T20:24:25.033Z,1.83
2022-10-23T20:26:56.537Z,1.87
2022-10-23T20:29:25.794Z,1.60
2022-10-23T20:31:54.063Z,1.73
2022-10-23T20:34:22.324Z,1.40
2022-10-23T20:36:50.838Z,1.80
2022-10-23T20:39:20.843Z,2.00
2022-10-23T20:41:49.321Z,2.10
2022-10-23T20:44:19.870Z,1.60
2022-10-23T20:46:48.426Z,1.87
2022-10-23T20:49:17.652Z,1.67
2022-10-23T20:51:46.371Z,1.90
2022-10-23T20:54:14.616Z,1.40
2022-10-23T20:56:43.114Z,1.97
2022-10-23T20:59:13.606Z,1.77
2022-10-23T21:01:44.992Z,1.73
2022-10-23T21:04:14.664Z,2.00
2022-10-23T21:07:08.349Z,1.40
2022-10-23T21:09:32.444Z,1.93
2022-10-23T21:12:00.671Z,1.87
2022-10-23T21:14:29.192Z,2.20
2022-10-23T21:16:58.772Z,1.40
2022-10-23T21:19:27.212Z,2.20
2022-10-23T21:21:55.712Z,2.10
2022-10-23T21:24:24.101Z,1.90
2022-10-23T21:26:52.632Z,2.00
2022-10-23T21:29:21.110Z,2.07
2022-10-23T21:31:53.980Z,1.67
2022-10-23T21:34:24.141Z,1.80
2022-10-23T21:37:13.124Z,1.80
2022-10-23T21:39:40.966Z,1.80
2022-10-23T21:42:09.617Z,1.60
2022-10-23T21:44:38.447Z,1.77
2022-10-23T21:47:06.843Z,1.53
2022-10-23T21:49:36.673Z,1.83
2022-10-23T21:52:05.999Z,1.50
2022-10-23T21:54:34.532Z,1.37
2022-10-23T21:57:04.282Z,2.50
2022-10-23T21:59:35.897Z,1.73
2022-10-23T22:02:05.580Z,1.97
2022-10-23T22:04:34.498Z,2.20
2022-10-23T22:07:04.468Z,2.53
2022-10-23T22:09:33.813Z,2.33
2022-10-23T22:12:02.211Z,2.40
2022-10-23T22:14:30.851Z,2.47
2022-10-23T22:16:59.051Z,1.97
2022-10-23T22:19:27.343Z,2.27
2022-10-23T22:21:56.016Z,2.47
2022-10-23T22:24:25.694Z,2.63
2022-10-23T22:26:56.089Z,1.40
2022-10-23T22:29:26.346Z,2.70
2022-10-23T22:31:55.049Z,2.13
2022-10-23T22:34:47.974Z,2.30
2022-10-23T22:37:14.264Z,2.00
2022-10-23T22:39:43.990Z,2.97
2022-10-23T22:42:12.186Z,2.10
2022-10-23T22:44:40.482Z,2.43
2022-10-23T22:47:08.616Z,2.30
2022-10-23T22:49:38.357Z,3.30
2022-10-23T22:52:06.566Z,2.40
2022-10-23T22:54:35.160Z,1.97
2022-10-23T22:57:04.942Z,2.10
2022-10-23T22:59:33.397Z,3.03
2022-10-23T23:02:01.561Z,2.20
2022-10-23T23:04:38.236Z,1.97
2022-10-23T23:07:07.666Z,2.07
2022-10-23T23:09:38.384Z,2.97
2022-10-23T23:12:09.325Z,2.47
2022-10-23T23:14:38.375Z,2.17
2022-10-23T23:17:06.895Z,2.50
2022-10-23T23:19:35.240Z,1.87
2022-10-23T23:22:03.553Z,2.20
2022-10-23T23:24:32.079Z,2.77
2022-10-23T23:27:00.420Z,2.20
2022-10-23T23:29:30.046Z,2.40
2022-10-23T23:31:58.259Z,2.30
2022-10-23T23:34:26.538Z,1.97
2022-10-23T23:36:54.603Z,2.70
2022-10-23T23:39:22.746Z,2.50
2022-10-23T23:41:50.883Z,2.57
2022-10-23T23:44:18.972Z,2.53
2022-10-23T23:46:48.458Z,2.50
2022-10-23T23:49:16.583Z,2.50
2022-10-23T23:51:44.780Z,2.80
2022-10-23T23:54:13.025Z,3.00
2022-10-23T23:56:41.239Z,2.03
2022-10-23T23:59:09.411Z,2.43
